Latest Weather Observations for Mount Buller

IDV60801

Issued at 7:31 am EDT Monday 15 February 2016 (issued every 30 minutes, with the page automatically refreshed every 10 minutes)

About weather observations | Map of weather stations | Latest weather observations for VIC | Other Formats
Station Details ID: 083024 Name: MOUNT BULLER Lat: -37.15 Lon: 146.44 Height: 1707.0 m
Data from the previous 72 hours. | See also: Recent months at Mount Buller
Date/Time
EDT
Temp
°C
App
Temp
°C
Dew
Point
Rel
Hum
%
Delta-T
°C
Wind Press
QNH
hPa
Press
MSL
hPa
Rain
since 9 am
mm
Dir
 
Spd
km/h
Gust
km/h
Spd
kts
Gust
kts
15/07:30am 6.9 0.4 2.6 74 2.0 WSW 26 35 14 19 - - -
15/07:00am 6.5 0.0 2.4 75 1.9 WSW 26 32 14 17 - - -
15/06:30am 6.4 0.3 2.5 76 1.8 WSW 24 30 13 16 - - 0.0
15/06:00am 6.1 1.6 2.2 76 1.8 SW 15 26 8 14 - - 0.0
15/05:30am 6.2 0.7 2.1 75 1.9 WSW 20 26 11 14 - - 0.0
15/05:00am 6.4 2.2 1.7 72 2.1 WSW 13 24 7 13 - - 0.0
15/04:30am 6.5 4.8 2.0 73 2.0 CALM 0 0 0 0 - - 0.0
15/04:00am 5.8 4.3 2.8 81 1.4 CALM 0 0 0 0 - - 0.0
15/03:30am 5.9 4.3 2.5 79 1.6 CALM 0 0 0 0 - - 0.0
15/03:00am 7.3 5.9 3.7 78 1.7 CALM 0 0 0 0 - - 0.0
15/02:30am 7.2 5.9 4.3 82 1.4 CALM 0 0 0 0 - - 0.0
15/02:00am 6.6 5.3 4.3 85 1.1 CALM 0 0 0 0 - - 0.0
15/01:30am 6.0 4.6 3.5 84 1.2 CALM 0 0 0 0 - - 0.0
15/01:00am 6.9 5.6 4.2 83 1.3 CALM 0 0 0 0 - - 0.0
15/12:30am 6.7 5.4 4.2 84 1.2 CALM 0 0 0 0 - - 0.0
15/12:00am 6.4 2.3 4.1 85 1.1 SSW 15 20 8 11 - - 0.0
 
Date/Time
EDT
Temp
°C
App
Temp
°C
Dew
Point
Rel
Hum
%
Delta-T
°C
Wind Press
QNH
hPa
Press
MSL
hPa
Rain
since 9 am
mm
Dir
 
Spd
km/h
Gust
km/h
Spd
kts
Gust
kts
14/11:30pm 7.1 5.8 3.9 80 1.5 CALM 0 0 0 0 - - 0.0
14/11:00pm 7.6 6.3 4.2 79 1.6 CALM 0 0 0 0 - - 0.0
14/10:30pm 7.5 6.1 3.4 75 1.9 CALM 0 0 0 0 - - 0.0
14/10:00pm 7.3 5.9 3.5 77 1.8 CALM 0 0 0 0 - - 0.0
14/09:30pm 7.8 6.5 4.0 77 1.8 CALM 0 0 0 0 - - 0.0
14/09:00pm 8.0 5.6 4.4 78 1.7 WSW 6 20 3 11 - - 0.0
14/08:30pm 8.4 7.2 4.4 76 1.9 CALM 0 0 0 0 - - 0.0
14/08:00pm 9.7 8.6 4.9 72 2.4 CALM 0 0 0 0 - - 0.0
14/07:30pm 11.0 9.9 5.3 68 2.9 CALM 0 0 0 0 - - 0.0
14/07:00pm 12.3 11.3 5.7 64 3.4 CALM 0 0 0 0 - - 0.0
14/06:30pm 12.9 11.8 5.1 59 4.0 CALM 0 0 0 0 - - 0.0
14/06:00pm 13.6 12.7 6.0 60 4.0 CALM 0 0 0 0 - - 0.0
14/05:30pm 13.9 11.2 5.5 57 4.4 W 9 22 5 12 - - 0.0
14/05:00pm 14.6 12.4 6.4 58 4.3 WNW 7 24 4 13 - - 0.0
14/04:30pm 14.0 11.0 4.0 51 5.0 NNW 9 30 5 16 - - 0.0
14/04:00pm 14.1 10.2 3.6 49 5.2 NW 13 24 7 13 - - 0.0
14/03:30pm 14.7 11.2 5.5 54 4.8 NW 13 28 7 15 - - 0.0
14/03:00pm 14.2 11.1 5.6 56 4.5 NW 11 32 6 17 - - 0.0
14/02:30pm 14.5 11.7 5.0 53 4.9 NW 9 32 5 17 - - 0.0
14/02:00pm 14.8 10.7 2.4 43 6.1 NW 13 28 7 15 - - 0.0
14/01:30pm 13.9 9.9 2.8 47 5.4 NW 13 24 7 13 - - 0.0
14/01:00pm 15.0 13.3 6.0 55 4.7 NW 4 20 2 11 - - 0.0
14/12:30pm 13.2 10.8 4.1 54 4.6 NW 6 26 3 14 - - 0.0
14/12:00pm 14.1 10.3 6.0 58 4.2 NW 15 28 8 15 - - 0.0
14/11:30am 13.7 9.7 2.6 47 5.4 NW 13 28 7 15 - - 0.0
14/11:00am 13.1 7.4 0.8 43 5.7 NW 20 41 11 22 - - 0.0
14/10:30am 11.7 7.3 0.5 46 5.1 NW 13 30 7 16 - - 0.0
14/10:00am 12.8 8.0 -2.3 35 6.6 NNW 13 24 7 13 - - 0.0
14/09:30am 12.4 7.3 0.8 45 5.4 NNW 17 28 9 15 - - 0.0
14/09:00am 12.6 7.0 -2.8 34 6.6 NNW 17 43 9 23 - - 0.0
14/08:30am 12.6 5.5 -8.0 23 7.9 NW 22 61 12 33 - - -
14/08:00am 11.9 7.2 -1.6 39 5.9 NW 13 43 7 23 - - -
14/07:38am 12.6 4.1 -12.5 16 8.7 WNW 28 61 15 33 - - -
14/07:30am 11.9 5.4 -5.5 29 7.0 WNW 20 54 11 29 - - -
14/07:22am 12.0 4.3 -6.4 27 7.3 WNW 26 54 14 29 - - -
14/07:21am 12.3 4.3 -10.0 20 8.2 WNW 26 54 14 29 - - -
14/07:00am 11.3 6.3 -1.5 41 5.6 NW 15 43 8 23 - - -
14/06:30am 10.3 8.4 3.1 61 3.5 NW 2 22 1 12 - - -
14/06:00am 10.5 8.7 5.5 71 2.5 NNW 4 22 2 12 - - -
14/05:30am 11.2 8.7 6.7 74 2.3 NNW 9 35 5 19 - - -
14/05:00am 11.9 8.5 6.0 67 3.0 NW 13 44 7 24 - - -
14/04:30am 12.3 9.8 6.6 68 3.0 NW 9 30 5 16 - - -
14/04:00am 12.7 11.5 6.3 65 3.3 WNW 2 20 1 11 - - -
14/03:30am 12.7 8.9 5.8 63 3.6 NW 15 35 8 19 - - -
14/03:00am 13.3 7.8 5.9 61 3.9 NW 24 39 13 21 - - 0.0
14/02:30am 13.0 10.2 5.2 59 4.0 NW 9 24 5 13 - - -
14/02:00am 12.9 11.8 5.1 59 4.0 CALM 0 0 0 0 - - -
14/01:30am 14.0 12.1 2.6 46 5.6 N 2 24 1 13 - - -
14/01:00am 14.7 10.9 1.9 42 6.2 NNW 11 30 6 16 - - -
14/12:30am 14.9 12.1 1.8 41 6.3 N 6 30 3 16 - - -
14/12:00am 15.5 10.5 1.6 39 6.7 NNW 17 30 9 16 - - -
 
Date/Time
EDT
Temp
°C
App
Temp
°C
Dew
Point
Rel
Hum
%
Delta-T
°C
Wind Press
QNH
hPa
Press
MSL
hPa
Rain
since 9 am
mm
Dir
 
Spd
km/h
Gust
km/h
Spd
kts
Gust
kts
13/11:30pm 15.8 11.1 1.2 37 7.0 NNW 15 37 8 20 - - -
13/11:00pm 16.1 11.0 0.7 35 7.4 NNW 17 32 9 17 - - -
13/10:30pm 16.4 10.3 0.1 33 7.7 NNW 22 41 12 22 - - -
13/10:00pm 16.5 12.9 0.6 34 7.6 NNW 9 33 5 18 - - -
13/09:30pm 16.7 11.2 0.8 34 7.6 N 19 41 10 22 - - -
13/09:00pm 17.2 11.6 1.2 34 7.8 NNW 20 35 11 19 - - -
13/08:30pm 17.4 11.1 1.4 34 7.8 NNW 24 43 13 23 - - 0.0
13/08:00pm 18.1 12.1 1.2 32 8.3 N 22 39 12 21 - - 0.0
13/07:42pm 18.3 10.8 1.3 32 8.4 NNW 30 48 16 26 - - 0.0
13/07:30pm 18.4 11.0 1.9 33 8.2 NNW 30 44 16 24 - - 0.0
13/07:00pm 19.0 11.4 2.8 34 8.2 NNW 32 52 17 28 - - 0.0
13/06:41pm 19.3 12.0 2.6 33 8.5 NNW 30 48 16 26 - - 0.0
13/06:30pm 19.4 11.6 2.7 33 8.5 NNW 33 48 18 26 - - 0.0
13/06:10pm 18.8 10.7 3.0 35 8.0 NNW 35 54 19 29 - - 0.0
13/06:00pm 19.3 10.7 2.6 33 8.5 NNW 37 50 20 27 - - 0.0
13/05:30pm 18.5 10.2 2.4 34 8.1 NNW 35 54 19 29 - - 0.0
13/05:29pm 18.5 10.6 2.4 34 8.1 NNW 33 54 18 29 - - 0.0
13/05:00pm 19.5 13.1 3.2 34 8.4 NNW 26 39 14 21 - - 0.0
13/04:32pm 19.7 13.0 3.4 34 8.4 NNW 28 46 15 25 - - 0.0
13/04:30pm 20.0 13.3 3.7 34 8.5 NNW 28 43 15 23 - - 0.0
13/04:00pm 19.1 11.7 4.1 37 7.8 NNW 32 46 17 25 - - 0.0
13/03:39pm 19.2 12.5 3.8 36 8.0 N 28 56 15 30 - - 0.0
13/03:30pm 19.5 13.9 5.2 39 7.6 N 24 50 13 27 - - 0.0
13/03:06pm 19.5 11.8 3.6 35 8.2 NNW 33 54 18 29 - - 0.0
13/03:00pm 20.8 13.6 4.8 35 8.5 N 32 48 17 26 - - 0.0
13/02:30pm 19.4 11.7 3.2 34 8.3 N 33 59 18 32 - - 0.0
13/02:00pm 19.7 11.6 3.4 34 8.4 NNW 35 54 19 29 - - 0.0
13/01:40pm 18.4 10.3 3.1 36 7.8 NNW 35 54 19 29 - - 0.0
13/01:30pm 18.1 10.1 3.9 39 7.3 NNW 35 50 19 27 - - 0.0
13/01:00pm 20.0 13.5 4.9 37 8.0 N 28 59 15 32 - - 0.0
13/12:56pm 20.3 14.2 4.8 36 8.2 N 26 54 14 29 - - 0.0
13/12:30pm 20.5 16.0 6.8 41 7.6 NNW 20 35 11 19 - - 0.0
13/12:00pm 18.8 14.1 6.0 43 6.9 N 20 39 11 21 - - 0.0
13/11:30am 18.7 12.0 5.5 42 7.0 N 30 48 16 26 - - 0.0
13/11:08am 18.3 11.8 4.5 40 7.2 N 28 48 15 26 - - 0.0
13/11:00am 18.5 12.8 4.7 40 7.2 NNW 24 43 13 23 - - 0.0
13/10:55am 18.5 11.8 3.9 38 7.6 NNW 28 46 15 25 - - 0.0
13/10:30am 17.8 10.1 3.3 38 7.4 NNW 33 46 18 25 - - 0.0
13/10:00am 17.1 11.2 3.8 41 6.8 NNW 24 43 13 23 - - 0.0
13/09:42am 17.3 10.5 2.9 38 7.2 NNW 28 50 15 27 - - 0.0
13/09:30am 17.2 9.3 2.0 36 7.5 NNW 33 46 18 25 - - 0.0
13/09:09am 16.5 8.7 1.8 37 7.2 NNW 32 50 17 27 - - 0.0
13/09:00am 16.8 9.2 2.8 39 7.0 NNW 32 44 17 24 - - 0.0
13/08:43am 16.1 7.8 2.2 39 6.8 NNW 35 56 19 30 - - 0.0
13/08:30am 15.9 8.5 2.0 39 6.8 NNW 30 43 16 23 - - 0.0
13/08:00am 15.3 8.4 2.8 43 6.2 NNW 28 43 15 23 - - 0.0
13/07:30am 15.1 7.3 1.6 40 6.5 NNW 32 43 17 23 - - 0.0
13/07:00am 15.1 7.2 0.9 38 6.8 NNW 32 44 17 24 - - 0.0
13/06:30am 15.0 7.4 0.8 38 6.7 NNW 30 50 16 27 - - 0.0
13/06:01am 15.1 7.9 0.9 38 6.8 NNW 28 46 15 25 - - 0.0
13/06:00am 15.0 8.2 0.8 38 6.7 NNW 26 46 14 25 - - 0.0
13/05:54am 15.2 8.0 1.0 38 6.8 NNW 28 46 15 25 - - 0.0
13/05:30am 14.9 8.1 0.7 38 6.7 NNW 26 39 14 21 - - 0.0
13/05:17am 15.1 7.9 0.5 37 6.9 NNW 28 46 15 25 - - 0.0
13/05:00am 15.0 7.4 0.4 37 6.9 NNW 30 46 16 25 - - 0.0
13/04:30am 15.1 7.1 0.5 37 6.9 NNW 32 50 17 27 - - 0.0
13/04:27am 15.2 7.6 0.6 37 6.9 NNW 30 50 16 27 - - 0.0
13/04:00am 15.2 7.2 0.6 37 6.9 NNW 32 48 17 26 - - 0.0
13/03:30am 15.3 7.7 0.7 37 6.9 NNW 30 43 16 23 - - 0.0
13/03:00am 15.2 7.6 0.6 37 6.9 NNW 30 44 16 24 - - 0.0
13/02:53am 15.0 7.4 0.8 38 6.7 NNW 30 48 16 26 - - 0.0
13/02:30am 15.2 7.1 1.0 38 6.8 NNW 33 44 18 24 - - 0.0
13/02:00am 15.4 7.3 1.2 38 6.8 NNW 33 43 18 23 - - 0.0
13/01:30am 15.4 7.9 1.5 39 6.7 NNW 30 41 16 22 - - 0.0
13/01:00am 15.2 8.6 2.1 41 6.4 NNW 26 39 14 21 - - 0.0
13/12:30am 15.0 8.8 2.2 42 6.3 NNW 24 33 13 18 - - 0.0
13/12:00am 15.0 8.9 2.5 43 6.1 NNW 24 32 13 17 - - 0.0
 
Date/Time
EDT
Temp
°C
App
Temp
°C
Dew
Point
Rel
Hum
%
Delta-T
°C
Wind Press
QNH
hPa
Press
MSL
hPa
Rain
since 9 am
mm
Dir
 
Spd
km/h
Gust
km/h
Spd
kts
Gust
kts
12/11:30pm 14.6 12.7 3.1 46 5.7 NNW 2 24 1 13 - - 0.0
12/11:00pm 14.1 12.7 3.6 49 5.2 CALM 0 0 0 0 - - 0.0
12/10:30pm 14.3 13.0 4.3 51 5.1 CALM 0 0 0 0 - - 0.0
12/10:00pm 15.0 13.7 4.1 48 5.5 CALM 0 0 0 0 - - 0.0
12/09:30pm 13.9 12.4 3.1 48 5.3 CALM 0 0 0 0 - - 0.0
12/09:00pm 14.2 12.6 2.5 45 5.7 CALM 0 0 0 0 - - 0.0
12/08:30pm 14.4 13.0 3.5 48 5.4 CALM 0 0 0 0 - - 0.0
12/08:00pm 14.7 13.4 4.1 49 5.4 CALM 0 0 0 0 - - 0.0
12/07:30pm 17.1 15.5 4.4 43 6.6 WNW 2 19 1 10 - - 0.0
12/07:00pm 18.0 16.2 3.5 38 7.4 WNW 2 17 1 9 - - 0.0
12/06:30pm 18.0 15.7 4.6 41 7.0 NNW 6 24 3 13 - - 0.0
12/06:00pm 18.8 15.8 6.0 43 6.9 N 11 22 6 12 - - 0.0
12/05:30pm 18.1 16.1 6.3 46 6.4 WNW 6 19 3 10 - - 0.0
12/05:00pm 17.3 16.7 7.4 52 5.4 CALM 0 0 0 0 - - 0.0
12/04:30pm 17.5 16.9 7.3 51 5.6 CALM 0 0 0 0 - - 0.0
12/04:00pm 18.1 14.5 6.6 47 6.2 N 15 28 8 15 - - 0.0
12/03:30pm 17.2 14.1 5.5 46 6.2 NNW 11 30 6 16 - - 0.0
12/03:00pm 17.8 15.4 4.4 41 7.0 N 6 26 3 14 - - 0.0
12/02:30pm 17.7 13.8 5.3 44 6.6 NW 15 35 8 19 - - 0.0
12/02:00pm 18.2 13.4 5.4 43 6.8 NW 20 33 11 18 - - 0.0
12/01:30pm 18.8 15.5 6.6 45 6.7 NNW 13 28 7 15 - - 0.0
12/01:00pm 18.4 15.9 6.6 46 6.4 NNW 9 30 5 16 - - 0.0
12/12:30pm 17.6 12.8 4.9 43 6.7 NNW 19 33 10 18 - - 0.0
12/12:00pm 16.8 14.3 3.8 42 6.6 N 6 30 3 16 - - 0.0
12/11:30am 17.0 15.9 7.1 52 5.4 N 2 22 1 12 - - 0.0
12/11:00am 16.4 13.8 6.2 51 5.4 N 9 24 5 13 - - 0.0
12/10:30am 16.5 15.7 6.6 52 5.3 CALM 0 0 0 0 - - 0.0
12/10:00am 16.1 14.5 2.5 40 6.7 CALM 0 0 0 0 - - 0.0
12/09:30am 15.8 13.9 2.9 42 6.4 NW 2 17 1 9 - - 0.0
12/09:00am 15.3 13.4 3.1 44 6.1 NNW 2 20 1 11 - - 0.0
12/08:30am 14.4 12.4 2.3 44 5.9 NW 2 22 1 12 - - 0.0
12/08:00am 14.0 12.2 1.0 41 6.1 CALM 0 0 0 0 - - 0.0

Other Formats:

Comma delimited format used in spreadsheet applications
http://www.bom.gov.au/fwo/IDV60801/IDV60801.94894.axf

JavaScript Object Notation format (JSON) in row-major order
http://www.bom.gov.au/fwo/IDV60801/IDV60801.94894.json